sensor_id;sensor_type;location;lat;lon;timestamp;temperature;humidity
4725;DHT22;2376;53.544;10.226;2022-09-28T00:01:41;11.00;99.90
4725;DHT22;2376;53.544;10.226;2022-09-28T00:04:08;11.00;99.90
4725;DHT22;2376;53.544;10.226;2022-09-28T00:06:35;10.90;99.90
4725;DHT22;2376;53.544;10.226;2022-09-28T00:09:04;10.90;99.90
4725;DHT22;2376;53.544;10.226;2022-09-28T00:11:31;10.90;99.90
4725;DHT22;2376;53.544;10.226;2022-09-28T00:13:59;10.90;99.90
4725;DHT22;2376;53.544;10.226;2022-09-28T00:16:30;10.90;99.90
4725;DHT22;2376;53.544;10.226;2022-09-28T00:18:58;10.90;99.90
4725;DHT22;2376;53.544;10.226;2022-09-28T00:21:27;10.90;99.90
4725;DHT22;2376;53.544;10.226;2022-09-28T00:23:55;10.90;99.90
4725;DHT22;2376;53.544;10.226;2022-09-28T00:26:45;10.80;99.90
4725;DHT22;2376;53.544;10.226;2022-09-28T00:29:18;10.80;99.90
4725;DHT22;2376;53.544;10.226;2022-09-28T00:31:45;10.90;99.90
4725;DHT22;2376;53.544;10.226;2022-09-28T00:34:13;10.90;99.90
4725;DHT22;2376;53.544;10.226;2022-09-28T00:36:42;10.80;99.90
4725;DHT22;2376;53.544;10.226;2022-09-28T00:39:10;10.80;99.90
4725;DHT22;2376;53.544;10.226;2022-09-28T00:41:39;10.80;99.90
4725;DHT22;2376;53.544;10.226;2022-09-28T00:44:36;10.80;99.90
4725;DHT22;2376;53.544;10.226;2022-09-28T00:47:08;10.80;99.90
4725;DHT22;2376;53.544;10.226;2022-09-28T00:49:40;10.80;99.90
4725;DHT22;2376;53.544;10.226;2022-09-28T00:52:11;10.70;99.90
4725;DHT22;2376;53.544;10.226;2022-09-28T00:54:41;10.70;99.90
4725;DHT22;2376;53.544;10.226;2022-09-28T00:57:10;10.70;99.90
4725;DHT22;2376;53.544;10.226;2022-09-28T00:59:37;10.70;99.90
4725;DHT22;2376;53.544;10.226;2022-09-28T01:02:03;10.70;99.90
4725;DHT22;2376;53.544;10.226;2022-09-28T01:04:30;10.70;99.90
4725;DHT22;2376;53.544;10.226;2022-09-28T01:06:58;10.70;99.90
4725;DHT22;2376;53.544;10.226;2022-09-28T01:09:26;10.60;99.90
4725;DHT22;2376;53.544;10.226;2022-09-28T01:11:53;10.60;99.90
4725;DHT22;2376;53.544;10.226;2022-09-28T01:14:22;10.60;99.90
4725;DHT22;2376;53.544;10.226;2022-09-28T01:16:56;10.60;99.90
4725;DHT22;2376;53.544;10.226;2022-09-28T01:19:46;10.60;99.90
4725;DHT22;2376;53.544;10.226;2022-09-28T01:22:27;10.60;99.90
4725;DHT22;2376;53.544;10.226;2022-09-28T01:25:03;10.60;99.90
4725;DHT22;2376;53.544;10.226;2022-09-28T01:27:35;10.60;99.90
4725;DHT22;2376;53.544;10.226;2022-09-28T01:30:06;10.50;99.90
4725;DHT22;2376;53.544;10.226;2022-09-28T01:32:45;10.50;99.90
4725;DHT22;2376;53.544;10.226;2022-09-28T01:35:16;10.50;99.90
4725;DHT22;2376;53.544;10.226;2022-09-28T01:37:46;10.50;99.90
4725;DHT22;2376;53.544;10.226;2022-09-28T01:40:17;10.50;99.90
4725;DHT22;2376;53.544;10.226;2022-09-28T01:42:49;10.50;99.90
4725;DHT22;2376;53.544;10.226;2022-09-28T01:45:22;10.50;99.90
4725;DHT22;2376;53.544;10.226;2022-09-28T01:47:53;10.50;99.90
4725;DHT22;2376;53.544;10.226;2022-09-28T01:50:23;10.50;99.90
4725;DHT22;2376;53.544;10.226;2022-09-28T01:52:54;10.50;99.90
4725;DHT22;2376;53.544;10.226;2022-09-28T01:55:28;10.50;99.90
4725;DHT22;2376;53.544;10.226;2022-09-28T01:58:01;10.50;99.90
4725;DHT22;2376;53.544;10.226;2022-09-28T02:00:29;10.40;99.90
4725;DHT22;2376;53.544;10.226;2022-09-28T02:02:58;10.40;99.90
4725;DHT22;2376;53.544;10.226;2022-09-28T02:05:29;10.40;99.90
4725;DHT22;2376;53.544;10.226;2022-09-28T02:07:59;10.40;99.90
4725;DHT22;2376;53.544;10.226;2022-09-28T02:10:31;10.40;99.90
4725;DHT22;2376;53.544;10.226;2022-09-28T02:13:03;10.40;99.90
4725;DHT22;2376;53.544;10.226;2022-09-28T02:15:36;10.30;99.90
4725;DHT22;2376;53.544;10.226;2022-09-28T02:18:05;10.30;99.90
4725;DHT22;2376;53.544;10.226;2022-09-28T02:20:34;10.30;99.90
4725;DHT22;2376;53.544;10.226;2022-09-28T02:23:03;10.20;99.90
4725;DHT22;2376;53.544;10.226;2022-09-28T02:25:36;10.20;99.90
4725;DHT22;2376;53.544;10.226;2022-09-28T02:28:07;10.10;99.90
4725;DHT22;2376;53.544;10.226;2022-09-28T02:30:37;10.10;99.90
4725;DHT22;2376;53.544;10.226;2022-09-28T02:33:10;10.10;99.90
4725;DHT22;2376;53.544;10.226;2022-09-28T02:35:39;10.00;99.90
4725;DHT22;2376;53.544;10.226;2022-09-28T02:38:06;10.00;99.90
4725;DHT22;2376;53.544;10.226;2022-09-28T02:40:34;10.00;99.90
4725;DHT22;2376;53.544;10.226;2022-09-28T02:43:10;10.00;99.90
4725;DHT22;2376;53.544;10.226;2022-09-28T02:45:49;10.00;99.90
4725;DHT22;2376;53.544;10.226;2022-09-28T02:48:32;9.90;99.90
4725;DHT22;2376;53.544;10.226;2022-09-28T02:51:06;9.90;99.90
4725;DHT22;2376;53.544;10.226;2022-09-28T02:53:54;9.90;99.90
4725;DHT22;2376;53.544;10.226;2022-09-28T02:56:40;9.80;99.90
4725;DHT22;2376;53.544;10.226;2022-09-28T02:59:22;9.70;99.90
4725;DHT22;2376;53.544;10.226;2022-09-28T03:02:02;9.80;99.90
4725;DHT22;2376;53.544;10.226;2022-09-28T03:04:38;9.70;99.90
4725;DHT22;2376;53.544;10.226;2022-09-28T03:07:15;9.70;99.90
4725;DHT22;2376;53.544;10.226;2022-09-28T03:09:44;9.70;99.90
4725;DHT22;2376;53.544;10.226;2022-09-28T03:12:15;9.70;99.90
4725;DHT22;2376;53.544;10.226;2022-09-28T03:14:45;9.70;99.90
4725;DHT22;2376;53.544;10.226;2022-09-28T03:17:12;9.70;99.90
4725;DHT22;2376;53.544;10.226;2022-09-28T03:19:39;9.70;99.90
4725;DHT22;2376;53.544;10.226;2022-09-28T03:22:06;9.70;99.90
4725;DHT22;2376;53.544;10.226;2022-09-28T03:24:33;9.70;99.90
4725;DHT22;2376;53.544;10.226;2022-09-28T03:26:59;9.70;99.90
4725;DHT22;2376;53.544;10.226;2022-09-28T03:29:26;9.70;99.90
4725;DHT22;2376;53.544;10.226;2022-09-28T03:31:57;9.70;99.90
4725;DHT22;2376;53.544;10.226;2022-09-28T03:34:23;9.70;99.90
4725;DHT22;2376;53.544;10.226;2022-09-28T03:36:50;9.70;99.90
4725;DHT22;2376;53.544;10.226;2022-09-28T03:39:17;9.70;99.90
4725;DHT22;2376;53.544;10.226;2022-09-28T03:41:44;9.70;99.90
4725;DHT22;2376;53.544;10.226;2022-09-28T03:44:11;9.70;99.90
4725;DHT22;2376;53.544;10.226;2022-09-28T03:46:38;9.70;99.90
4725;DHT22;2376;53.544;10.226;2022-09-28T03:49:07;9.70;99.90
4725;DHT22;2376;53.544;10.226;2022-09-28T03:51:34;9.70;99.90
4725;DHT22;2376;53.544;10.226;2022-09-28T03:54:01;9.70;99.90
4725;DHT22;2376;53.544;10.226;2022-09-28T03:56:28;9.70;99.90
4725;DHT22;2376;53.544;10.226;2022-09-28T03:58:54;9.70;99.90
4725;DHT22;2376;53.544;10.226;2022-09-28T04:01:21;9.70;99.90
4725;DHT22;2376;53.544;10.226;2022-09-28T04:03:52;9.70;99.90
4725;DHT22;2376;53.544;10.226;2022-09-28T04:06:20;9.70;99.90
4725;DHT22;2376;53.544;10.226;2022-09-28T04:08:47;9.70;99.90
4725;DHT22;2376;53.544;10.226;2022-09-28T04:11:14;9.70;99.90
4725;DHT22;2376;53.544;10.226;2022-09-28T04:13:40;9.70;99.90
4725;DHT22;2376;53.544;10.226;2022-09-28T04:16:09;9.70;99.90
4725;DHT22;2376;53.544;10.226;2022-09-28T04:18:35;9.70;99.90
4725;DHT22;2376;53.544;10.226;2022-09-28T04:21:05;9.70;99.90
4725;DHT22;2376;53.544;10.226;2022-09-28T04:23:35;9.60;99.90
4725;DHT22;2376;53.544;10.226;2022-09-28T04:26:02;9.60;99.90
4725;DHT22;2376;53.544;10.226;2022-09-28T04:28:29;9.60;99.90
4725;DHT22;2376;53.544;10.226;2022-09-28T04:31:15;9.50;99.90
4725;DHT22;2376;53.544;10.226;2022-09-28T04:33:42;9.60;99.90
4725;DHT22;2376;53.544;10.226;2022-09-28T04:36:09;9.60;99.90
4725;DHT22;2376;53.544;10.226;2022-09-28T04:38:38;9.60;99.90
4725;DHT22;2376;53.544;10.226;2022-09-28T04:41:05;9.60;99.90
4725;DHT22;2376;53.544;10.226;2022-09-28T04:43:32;9.50;99.90
4725;DHT22;2376;53.544;10.226;2022-09-28T04:45:59;9.50;99.90
4725;DHT22;2376;53.544;10.226;2022-09-28T04:48:27;9.50;99.90
4725;DHT22;2376;53.544;10.226;2022-09-28T04:50:54;9.50;99.90
4725;DHT22;2376;53.544;10.226;2022-09-28T04:53:21;9.50;99.90
4725;DHT22;2376;53.544;10.226;2022-09-28T04:55:57;9.50;99.90
4725;DHT22;2376;53.544;10.226;2022-09-28T04:58:24;9.50;99.90
4725;DHT22;2376;53.544;10.226;2022-09-28T05:00:52;9.40;99.90
4725;DHT22;2376;53.544;10.226;2022-09-28T05:03:19;9.40;99.90
4725;DHT22;2376;53.544;10.226;2022-09-28T05:05:47;9.40;99.90
4725;DHT22;2376;53.544;10.226;2022-09-28T05:08:14;9.40;99.90
4725;DHT22;2376;53.544;10.226;2022-09-28T05:10:41;9.50;99.90
4725;DHT22;2376;53.544;10.226;2022-09-28T05:13:10;9.40;99.90
4725;DHT22;2376;53.544;10.226;2022-09-28T05:15:38;9.40;99.90
4725;DHT22;2376;53.544;10.226;2022-09-28T05:18:05;9.40;99.90
4725;DHT22;2376;53.544;10.226;2022-09-28T05:20:32;9.40;99.90
4725;DHT22;2376;53.544;10.226;2022-09-28T05:22:59;9.40;99.90
4725;DHT22;2376;53.544;10.226;2022-09-28T05:25:26;9.40;99.90
4725;DHT22;2376;53.544;10.226;2022-09-28T05:27:54;9.40;99.90
4725;DHT22;2376;53.544;10.226;2022-09-28T05:30:23;9.40;99.90
4725;DHT22;2376;53.544;10.226;2022-09-28T05:32:50;9.30;99.90
4725;DHT22;2376;53.544;10.226;2022-09-28T05:35:17;9.40;99.90
4725;DHT22;2376;53.544;10.226;2022-09-28T05:37:44;9.40;99.90
4725;DHT22;2376;53.544;10.226;2022-09-28T05:40:11;9.40;99.90
4725;DHT22;2376;53.544;10.226;2022-09-28T05:42:38;9.30;99.90
4725;DHT22;2376;53.544;10.226;2022-09-28T05:45:06;9.30;99.90
4725;DHT22;2376;53.544;10.226;2022-09-28T05:47:38;9.30;99.90
4725;DHT22;2376;53.544;10.226;2022-09-28T05:50:06;9.30;99.90
4725;DHT22;2376;53.544;10.226;2022-09-28T05:52:33;9.20;99.90
4725;DHT22;2376;53.544;10.226;2022-09-28T05:54:59;9.20;99.90
4725;DHT22;2376;53.544;10.226;2022-09-28T05:57:26;9.20;99.90
4725;DHT22;2376;53.544;10.226;2022-09-28T05:59:53;9.20;99.90
4725;DHT22;2376;53.544;10.226;2022-09-28T06:02:20;9.20;99.90
4725;DHT22;2376;53.544;10.226;2022-09-28T06:04:48;9.20;99.90
4725;DHT22;2376;53.544;10.226;2022-09-28T06:07:15;9.20;99.90
4725;DHT22;2376;53.544;10.226;2022-09-28T06:09:42;9.20;99.90
4725;DHT22;2376;53.544;10.226;2022-09-28T06:12:09;9.20;99.90
4725;DHT22;2376;53.544;10.226;2022-09-28T06:14:35;9.10;99.90
4725;DHT22;2376;53.544;10.226;2022-09-28T06:17:03;9.10;99.90
4725;DHT22;2376;53.544;10.226;2022-09-28T06:19:30;9.10;99.90
4725;DHT22;2376;53.544;10.226;2022-09-28T06:21:58;9.20;99.90
4725;DHT22;2376;53.544;10.226;2022-09-28T06:24:24;9.20;99.90
4725;DHT22;2376;53.544;10.226;2022-09-28T06:26:51;9.20;99.90
4725;DHT22;2376;53.544;10.226;2022-09-28T06:29:18;9.20;99.90
4725;DHT22;2376;53.544;10.226;2022-09-28T06:31:44;9.20;99.90
4725;DHT22;2376;53.544;10.226;2022-09-28T06:34:12;9.20;99.90
4725;DHT22;2376;53.544;10.226;2022-09-28T06:36:39;9.20;99.90
4725;DHT22;2376;53.544;10.226;2022-09-28T06:39:07;9.20;99.90
4725;DHT22;2376;53.544;10.226;2022-09-28T06:41:34;9.20;99.90
4725;DHT22;2376;53.544;10.226;2022-09-28T06:44:01;9.20;99.90
4725;DHT22;2376;53.544;10.226;2022-09-28T06:46:28;9.30;99.90
4725;DHT22;2376;53.544;10.226;2022-09-28T06:48:55;9.30;99.90
4725;DHT22;2376;53.544;10.226;2022-09-28T06:51:22;9.30;99.90
4725;DHT22;2376;53.544;10.226;2022-09-28T06:53:49;9.30;99.90
4725;DHT22;2376;53.544;10.226;2022-09-28T06:56:19;9.40;99.90
4725;DHT22;2376;53.544;10.226;2022-09-28T06:58:46;9.40;99.90
4725;DHT22;2376;53.544;10.226;2022-09-28T07:01:13;9.40;99.90
4725;DHT22;2376;53.544;10.226;2022-09-28T07:03:39;9.40;99.90
4725;DHT22;2376;53.544;10.226;2022-09-28T07:06:09;9.40;99.90
4725;DHT22;2376;53.544;10.226;2022-09-28T07:08:37;9.40;99.90
4725;DHT22;2376;53.544;10.226;2022-09-28T07:11:05;9.50;99.90
4725;DHT22;2376;53.544;10.226;2022-09-28T07:13:33;9.50;99.90
4725;DHT22;2376;53.544;10.226;2022-09-28T07:16:01;9.50;99.90
4725;DHT22;2376;53.544;10.226;2022-09-28T07:18:28;9.50;99.90
4725;DHT22;2376;53.544;10.226;2022-09-28T07:20:55;9.50;99.90
4725;DHT22;2376;53.544;10.226;2022-09-28T07:23:22;9.50;99.90
4725;DHT22;2376;53.544;10.226;2022-09-28T07:25:50;9.50;99.90
4725;DHT22;2376;53.544;10.226;2022-09-28T07:28:17;9.60;99.90
4725;DHT22;2376;53.544;10.226;2022-09-28T07:30:46;9.60;99.90
4725;DHT22;2376;53.544;10.226;2022-09-28T07:33:14;9.60;99.90
4725;DHT22;2376;53.544;10.226;2022-09-28T07:35:49;9.60;99.90
4725;DHT22;2376;53.544;10.226;2022-09-28T07:38:16;9.60;99.90
4725;DHT22;2376;53.544;10.226;2022-09-28T07:40:42;9.70;99.90
4725;DHT22;2376;53.544;10.226;2022-09-28T07:43:26;9.70;99.90
4725;DHT22;2376;53.544;10.226;2022-09-28T07:45:54;9.80;99.90
4725;DHT22;2376;53.544;10.226;2022-09-28T07:48:22;9.80;99.90
4725;DHT22;2376;53.544;10.226;2022-09-28T07:50:49;9.80;99.90
4725;DHT22;2376;53.544;10.226;2022-09-28T07:53:17;9.80;99.90
4725;DHT22;2376;53.544;10.226;2022-09-28T07:55:49;9.90;99.90
4725;DHT22;2376;53.544;10.226;2022-09-28T07:58:16;9.90;99.90
4725;DHT22;2376;53.544;10.226;2022-09-28T08:00:43;9.90;99.90
4725;DHT22;2376;53.544;10.226;2022-09-28T08:03:13;9.90;99.90
4725;DHT22;2376;53.544;10.226;2022-09-28T08:05:40;10.00;99.90
4725;DHT22;2376;53.544;10.226;2022-09-28T08:08:07;10.00;99.90
4725;DHT22;2376;53.544;10.226;2022-09-28T08:10:34;10.00;99.90
4725;DHT22;2376;53.544;10.226;2022-09-28T08:13:02;10.00;99.90
4725;DHT22;2376;53.544;10.226;2022-09-28T08:15:31;10.10;99.90
4725;DHT22;2376;53.544;10.226;2022-09-28T08:18:00;10.10;99.90
4725;DHT22;2376;53.544;10.226;2022-09-28T08:20:28;10.10;99.90
4725;DHT22;2376;53.544;10.226;2022-09-28T08:23:13;10.20;99.90
4725;DHT22;2376;53.544;10.226;2022-09-28T08:25:44;10.10;99.90
4725;DHT22;2376;53.544;10.226;2022-09-28T08:28:11;10.10;99.90
4725;DHT22;2376;53.544;10.226;2022-09-28T08:30:38;10.20;99.90
4725;DHT22;2376;53.544;10.226;2022-09-28T08:33:05;10.20;99.90
4725;DHT22;2376;53.544;10.226;2022-09-28T08:35:33;10.20;99.90
4725;DHT22;2376;53.544;10.226;2022-09-28T08:38:00;10.20;99.90
4725;DHT22;2376;53.544;10.226;2022-09-28T08:40:28;10.20;99.90
4725;DHT22;2376;53.544;10.226;2022-09-28T08:43:03;10.20;99.90
4725;DHT22;2376;53.544;10.226;2022-09-28T08:45:32;10.20;99.90
4725;DHT22;2376;53.544;10.226;2022-09-28T08:48:02;10.20;99.90
4725;DHT22;2376;53.544;10.226;2022-09-28T08:50:59;10.30;99.90
4725;DHT22;2376;53.544;10.226;2022-09-28T08:53:35;10.30;99.90
4725;DHT22;2376;53.544;10.226;2022-09-28T08:56:09;10.30;99.90
4725;DHT22;2376;53.544;10.226;2022-09-28T08:58:41;10.40;99.90
4725;DHT22;2376;53.544;10.226;2022-09-28T09:01:11;10.40;99.90
4725;DHT22;2376;53.544;10.226;2022-09-28T09:03:41;10.40;99.90
4725;DHT22;2376;53.544;10.226;2022-09-28T09:06:19;10.40;99.90
4725;DHT22;2376;53.544;10.226;2022-09-28T09:08:54;10.50;99.90
4725;DHT22;2376;53.544;10.226;2022-09-28T09:11:36;10.50;99.90
4725;DHT22;2376;53.544;10.226;2022-09-28T09:14:31;10.50;99.90
4725;DHT22;2376;53.544;10.226;2022-09-28T09:17:08;10.50;99.90
4725;DHT22;2376;53.544;10.226;2022-09-28T09:19:46;10.50;99.90
4725;DHT22;2376;53.544;10.226;2022-09-28T09:22:24;10.50;99.90
4725;DHT22;2376;53.544;10.226;2022-09-28T09:24:59;10.60;99.90
4725;DHT22;2376;53.544;10.226;2022-09-28T09:27:57;10.60;99.90
4725;DHT22;2376;53.544;10.226;2022-09-28T09:30:29;10.70;99.90
4725;DHT22;2376;53.544;10.226;2022-09-28T09:33:14;10.70;99.90
4725;DHT22;2376;53.544;10.226;2022-09-28T09:35:55;10.80;99.90
4725;DHT22;2376;53.544;10.226;2022-09-28T09:38:40;10.80;99.90
4725;DHT22;2376;53.544;10.226;2022-09-28T09:41:17;10.90;99.90
4725;DHT22;2376;53.544;10.226;2022-09-28T09:44:11;10.90;99.90
4725;DHT22;2376;53.544;10.226;2022-09-28T09:46:43;11.00;99.90
4725;DHT22;2376;53.544;10.226;2022-09-28T09:49:17;11.00;99.90
4725;DHT22;2376;53.544;10.226;2022-09-28T09:51:49;11.00;99.90
4725;DHT22;2376;53.544;10.226;2022-09-28T09:54:22;11.00;99.90
4725;DHT22;2376;53.544;10.226;2022-09-28T09:56:56;11.10;99.90
4725;DHT22;2376;53.544;10.226;2022-09-28T09:59:28;11.20;99.90
4725;DHT22;2376;53.544;10.226;2022-09-28T10:02:00;11.20;99.90
4725;DHT22;2376;53.544;10.226;2022-09-28T10:04:31;11.20;99.90
4725;DHT22;2376;53.544;10.226;2022-09-28T10:07:04;11.30;99.90
4725;DHT22;2376;53.544;10.226;2022-09-28T10:09:36;11.30;99.90
4725;DHT22;2376;53.544;10.226;2022-09-28T10:12:07;11.30;99.90
4725;DHT22;2376;53.544;10.226;2022-09-28T10:14:35;11.40;99.90
4725;DHT22;2376;53.544;10.226;2022-09-28T10:17:02;11.40;99.90
4725;DHT22;2376;53.544;10.226;2022-09-28T10:19:31;11.50;99.90
4725;DHT22;2376;53.544;10.226;2022-09-28T10:21:59;11.50;99.90
4725;DHT22;2376;53.544;10.226;2022-09-28T10:24:30;11.50;99.90
4725;DHT22;2376;53.544;10.226;2022-09-28T10:27:04;11.60;99.90
4725;DHT22;2376;53.544;10.226;2022-09-28T10:29:39;11.50;99.90
4725;DHT22;2376;53.544;10.226;2022-09-28T10:32:20;11.70;99.90
4725;DHT22;2376;53.544;10.226;2022-09-28T10:34:47;11.70;99.90
4725;DHT22;2376;53.544;10.226;2022-09-28T10:37:14;11.80;99.90
4725;DHT22;2376;53.544;10.226;2022-09-28T10:39:45;11.60;99.90
4725;DHT22;2376;53.544;10.226;2022-09-28T10:42:18;11.60;99.90
4725;DHT22;2376;53.544;10.226;2022-09-28T10:45:03;11.40;99.90
4725;DHT22;2376;53.544;10.226;2022-09-28T10:47:42;11.50;99.90
4725;DHT22;2376;53.544;10.226;2022-09-28T10:50:19;11.70;99.90
4725;DHT22;2376;53.544;10.226;2022-09-28T10:52:46;11.70;99.90
4725;DHT22;2376;53.544;10.226;2022-09-28T10:55:27;11.80;99.90
4725;DHT22;2376;53.544;10.226;2022-09-28T10:57:56;11.90;99.90
4725;DHT22;2376;53.544;10.226;2022-09-28T11:00:32;12.00;99.90
4725;DHT22;2376;53.544;10.226;2022-09-28T11:03:00;12.10;99.90
4725;DHT22;2376;53.544;10.226;2022-09-28T11:05:27;12.10;99.90
4725;DHT22;2376;53.544;10.226;2022-09-28T11:07:55;12.30;99.90
4725;DHT22;2376;53.544;10.226;2022-09-28T11:10:24;12.40;99.90
4725;DHT22;2376;53.544;10.226;2022-09-28T11:12:52;12.50;99.90
4725;DHT22;2376;53.544;10.226;2022-09-28T11:15:24;12.60;99.90
4725;DHT22;2376;53.544;10.226;2022-09-28T11:17:52;12.70;99.90
4725;DHT22;2376;53.544;10.226;2022-09-28T11:20:28;12.80;99.90
4725;DHT22;2376;53.544;10.226;2022-09-28T11:22:56;12.80;99.90
4725;DHT22;2376;53.544;10.226;2022-09-28T11:25:26;12.80;99.90
4725;DHT22;2376;53.544;10.226;2022-09-28T11:27:58;12.80;99.90
4725;DHT22;2376;53.544;10.226;2022-09-28T11:30:30;12.60;99.90
4725;DHT22;2376;53.544;10.226;2022-09-28T11:33:02;12.70;99.90
4725;DHT22;2376;53.544;10.226;2022-09-28T11:35:43;12.80;99.90
4725;DHT22;2376;53.544;10.226;2022-09-28T11:38:21;12.80;99.90
4725;DHT22;2376;53.544;10.226;2022-09-28T11:41:00;12.90;99.90
4725;DHT22;2376;53.544;10.226;2022-09-28T11:43:46;12.90;99.90
4725;DHT22;2376;53.544;10.226;2022-09-28T11:46:25;12.90;99.90
4725;DHT22;2376;53.544;10.226;2022-09-28T11:49:00;13.00;99.90
4725;DHT22;2376;53.544;10.226;2022-09-28T11:51:31;13.20;99.90
4725;DHT22;2376;53.544;10.226;2022-09-28T11:54:04;13.10;99.90
4725;DHT22;2376;53.544;10.226;2022-09-28T11:56:40;13.20;99.90
4725;DHT22;2376;53.544;10.226;2022-09-28T11:59:13;13.20;99.90
4725;DHT22;2376;53.544;10.226;2022-09-28T12:01:46;13.30;99.90
4725;DHT22;2376;53.544;10.226;2022-09-28T12:04:19;13.40;99.90
4725;DHT22;2376;53.544;10.226;2022-09-28T12:06:49;13.40;99.90
4725;DHT22;2376;53.544;10.226;2022-09-28T12:09:21;13.50;99.90
4725;DHT22;2376;53.544;10.226;2022-09-28T12:11:54;13.50;99.90
4725;DHT22;2376;53.544;10.226;2022-09-28T12:14:25;13.20;99.90
4725;DHT22;2376;53.544;10.226;2022-09-28T12:16:57;13.40;99.90
4725;DHT22;2376;53.544;10.226;2022-09-28T12:19:29;13.50;99.90
4725;DHT22;2376;53.544;10.226;2022-09-28T12:22:01;13.70;99.90
4725;DHT22;2376;53.544;10.226;2022-09-28T12:24:31;13.90;99.90
4725;DHT22;2376;53.544;10.226;2022-09-28T12:27:03;14.00;99.90
4725;DHT22;2376;53.544;10.226;2022-09-28T12:29:34;14.20;99.90
4725;DHT22;2376;53.544;10.226;2022-09-28T12:32:11;14.30;99.90
4725;DHT22;2376;53.544;10.226;2022-09-28T12:34:40;14.30;99.90
4725;DHT22;2376;53.544;10.226;2022-09-28T12:37:36;14.20;99.90
4725;DHT22;2376;53.544;10.226;2022-09-28T12:40:28;14.20;99.90
4725;DHT22;2376;53.544;10.226;2022-09-28T12:43:05;14.30;99.90
4725;DHT22;2376;53.544;10.226;2022-09-28T12:45:45;14.40;99.90
4725;DHT22;2376;53.544;10.226;2022-09-28T12:48:50;14.40;99.90
4725;DHT22;2376;53.544;10.226;2022-09-28T12:51:32;14.60;99.90
4725;DHT22;2376;53.544;10.226;2022-09-28T12:54:10;14.60;99.90
4725;DHT22;2376;53.544;10.226;2022-09-28T12:56:42;14.60;99.90
4725;DHT22;2376;53.544;10.226;2022-09-28T12:59:17;14.70;99.90
4725;DHT22;2376;53.544;10.226;2022-09-28T13:01:56;14.60;99.90
4725;DHT22;2376;53.544;10.226;2022-09-28T13:04:52;14.70;99.90
4725;DHT22;2376;53.544;10.226;2022-09-28T13:07:31;14.70;99.90
4725;DHT22;2376;53.544;10.226;2022-09-28T13:10:09;14.70;99.90
4725;DHT22;2376;53.544;10.226;2022-09-28T13:12:50;14.70;99.90
4725;DHT22;2376;53.544;10.226;2022-09-28T13:15:34;14.60;99.90
4725;DHT22;2376;53.544;10.226;2022-09-28T13:18:07;14.60;99.90
4725;DHT22;2376;53.544;10.226;2022-09-28T13:20:52;14.60;99.90
4725;DHT22;2376;53.544;10.226;2022-09-28T13:23:27;14.50;99.90
4725;DHT22;2376;53.544;10.226;2022-09-28T13:25:58;14.50;99.90
4725;DHT22;2376;53.544;10.226;2022-09-28T13:28:28;14.50;99.90
4725;DHT22;2376;53.544;10.226;2022-09-28T13:30:57;14.40;99.90
4725;DHT22;2376;53.544;10.226;2022-09-28T13:33:30;14.40;99.90
4725;DHT22;2376;53.544;10.226;2022-09-28T13:36:02;14.30;99.90
4725;DHT22;2376;53.544;10.226;2022-09-28T13:41:16;14.20;99.90
4725;DHT22;2376;53.544;10.226;2022-09-28T13:44:02;14.20;99.90
4725;DHT22;2376;53.544;10.226;2022-09-28T13:46:38;14.20;99.90
4725;DHT22;2376;53.544;10.226;2022-09-28T13:49:12;14.10;99.90
4725;DHT22;2376;53.544;10.226;2022-09-28T13:51:52;14.10;99.90
4725;DHT22;2376;53.544;10.226;2022-09-28T13:54:33;14.10;99.90
4725;DHT22;2376;53.544;10.226;2022-09-28T13:57:12;14.10;99.90
4725;DHT22;2376;53.544;10.226;2022-09-28T13:59:51;14.00;99.90
4725;DHT22;2376;53.544;10.226;2022-09-28T14:02:27;14.00;99.90
4725;DHT22;2376;53.544;10.226;2022-09-28T14:04:57;14.00;99.90
4725;DHT22;2376;53.544;10.226;2022-09-28T14:07:57;14.00;99.90
4725;DHT22;2376;53.544;10.226;2022-09-28T14:10:45;13.90;99.90
4725;DHT22;2376;53.544;10.226;2022-09-28T14:16:21;13.80;99.90
4725;DHT22;2376;53.544;10.226;2022-09-28T14:18:49;13.80;99.90
4725;DHT22;2376;53.544;10.226;2022-09-28T14:24:29;13.80;99.90
4725;DHT22;2376;53.544;10.226;2022-09-28T14:27:34;13.80;99.90
4725;DHT22;2376;53.544;10.226;2022-09-28T14:30:18;13.90;99.90
4725;DHT22;2376;53.544;10.226;2022-09-28T14:32:51;13.90;99.90
4725;DHT22;2376;53.544;10.226;2022-09-28T14:35:28;13.90;99.90
4725;DHT22;2376;53.544;10.226;2022-09-28T14:37:59;13.90;99.90
4725;DHT22;2376;53.544;10.226;2022-09-28T14:40:58;13.80;99.90
4725;DHT22;2376;53.544;10.226;2022-09-28T14:44:01;13.80;99.90
4725;DHT22;2376;53.544;10.226;2022-09-28T14:46:40;13.70;99.90
4725;DHT22;2376;53.544;10.226;2022-09-28T14:52:37;13.60;99.90
4725;DHT22;2376;53.544;10.226;2022-09-28T14:55:16;13.50;99.90
4725;DHT22;2376;53.544;10.226;2022-09-28T14:57:54;13.50;99.90
4725;DHT22;2376;53.544;10.226;2022-09-28T15:00:24;13.60;99.90
4725;DHT22;2376;53.544;10.226;2022-09-28T15:02:53;13.60;99.90
4725;DHT22;2376;53.544;10.226;2022-09-28T15:05:23;13.60;99.90
4725;DHT22;2376;53.544;10.226;2022-09-28T15:07:52;13.60;99.90
4725;DHT22;2376;53.544;10.226;2022-09-28T15:10:25;13.60;99.90
4725;DHT22;2376;53.544;10.226;2022-09-28T15:12:57;13.60;99.90
4725;DHT22;2376;53.544;10.226;2022-09-28T15:15:29;13.60;99.90
4725;DHT22;2376;53.544;10.226;2022-09-28T15:20:48;13.60;99.90
4725;DHT22;2376;53.544;10.226;2022-09-28T15:23:26;13.70;99.90
4725;DHT22;2376;53.544;10.226;2022-09-28T15:25:58;13.80;99.90
4725;DHT22;2376;53.544;10.226;2022-09-28T15:28:26;13.80;99.90
4725;DHT22;2376;53.544;10.226;2022-09-28T15:30:59;13.80;99.90
4725;DHT22;2376;53.544;10.226;2022-09-28T15:33:28;13.80;99.90
4725;DHT22;2376;53.544;10.226;2022-09-28T15:36:16;13.90;99.90
4725;DHT22;2376;53.544;10.226;2022-09-28T15:38:51;13.90;99.90
4725;DHT22;2376;53.544;10.226;2022-09-28T15:41:19;14.00;99.90
4725;DHT22;2376;53.544;10.226;2022-09-28T15:44:05;14.00;99.90
4725;DHT22;2376;53.544;10.226;2022-09-28T15:46:33;14.10;99.90
4725;DHT22;2376;53.544;10.226;2022-09-28T15:49:01;14.10;99.90
4725;DHT22;2376;53.544;10.226;2022-09-28T15:51:31;14.20;99.90
4725;DHT22;2376;53.544;10.226;2022-09-28T15:54:13;14.10;99.90
4725;DHT22;2376;53.544;10.226;2022-09-28T15:56:51;14.00;99.90
4725;DHT22;2376;53.544;10.226;2022-09-28T15:59:25;13.90;99.90
4725;DHT22;2376;53.544;10.226;2022-09-28T16:02:02;13.90;99.90
4725;DHT22;2376;53.544;10.226;2022-09-28T16:04:38;14.00;99.90
4725;DHT22;2376;53.544;10.226;2022-09-28T16:07:24;14.00;99.90
4725;DHT22;2376;53.544;10.226;2022-09-28T16:09:57;13.90;99.90
4725;DHT22;2376;53.544;10.226;2022-09-28T16:12:29;13.90;99.90
4725;DHT22;2376;53.544;10.226;2022-09-28T16:15:02;13.80;99.90
4725;DHT22;2376;53.544;10.226;2022-09-28T16:17:32;13.80;99.90
4725;DHT22;2376;53.544;10.226;2022-09-28T16:20:02;13.80;99.90
4725;DHT22;2376;53.544;10.226;2022-09-28T16:22:30;13.80;99.90
4725;DHT22;2376;53.544;10.226;2022-09-28T16:24:59;13.80;99.90
4725;DHT22;2376;53.544;10.226;2022-09-28T16:27:29;13.80;99.90
4725;DHT22;2376;53.544;10.226;2022-09-28T16:30:14;13.80;99.90
4725;DHT22;2376;53.544;10.226;2022-09-28T16:32:48;13.80;99.90
4725;DHT22;2376;53.544;10.226;2022-09-28T16:35:19;13.70;99.90
4725;DHT22;2376;53.544;10.226;2022-09-28T16:37:48;13.60;99.90
4725;DHT22;2376;53.544;10.226;2022-09-28T16:40:20;13.50;99.90